sensor_id;sensor_type;location;lat;lon;timestamp;temperature;humidity
72206;DHT22;60111;48.286;7.812;2023-07-09T00:00:14;22.40;62.10
72206;DHT22;60111;48.286;7.812;2023-07-09T00:02:48;22.30;62.60
72206;DHT22;60111;48.286;7.812;2023-07-09T00:05:20;22.20;62.90
72206;DHT22;60111;48.286;7.812;2023-07-09T00:07:53;22.10;63.40
72206;DHT22;60111;48.286;7.812;2023-07-09T00:10:25;22.00;63.70
72206;DHT22;60111;48.286;7.812;2023-07-09T00:12:58;22.00;64.10
72206;DHT22;60111;48.286;7.812;2023-07-09T00:15:30;21.80;63.90
72206;DHT22;60111;48.286;7.812;2023-07-09T00:18:03;21.70;64.10
72206;DHT22;60111;48.286;7.812;2023-07-09T00:20:35;21.70;64.80
72206;DHT22;60111;48.286;7.812;2023-07-09T00:23:13;21.60;65.40
72206;DHT22;60111;48.286;7.812;2023-07-09T00:25:44;21.50;65.70
72206;DHT22;60111;48.286;7.812;2023-07-09T00:28:18;21.50;66.00
72206;DHT22;60111;48.286;7.812;2023-07-09T00:30:50;21.50;65.50
72206;DHT22;60111;48.286;7.812;2023-07-09T00:33:23;21.50;65.30
72206;DHT22;60111;48.286;7.812;2023-07-09T00:35:57;21.50;64.80
72206;DHT22;60111;48.286;7.812;2023-07-09T00:38:30;21.50;64.90
72206;DHT22;60111;48.286;7.812;2023-07-09T00:41:08;21.60;65.10
72206;DHT22;60111;48.286;7.812;2023-07-09T00:43:40;21.60;65.00
72206;DHT22;60111;48.286;7.812;2023-07-09T00:49:07;21.50;65.30
72206;DHT22;60111;48.286;7.812;2023-07-09T00:51:43;21.50;65.70
72206;DHT22;60111;48.286;7.812;2023-07-09T00:54:25;21.40;65.70
72206;DHT22;60111;48.286;7.812;2023-07-09T00:56:55;21.40;65.60
72206;DHT22;60111;48.286;7.812;2023-07-09T00:59:30;21.30;65.30
72206;DHT22;60111;48.286;7.812;2023-07-09T01:02:04;21.20;65.70
72206;DHT22;60111;48.286;7.812;2023-07-09T01:04:37;21.10;66.70
72206;DHT22;60111;48.286;7.812;2023-07-09T01:07:11;21.10;67.50
72206;DHT22;60111;48.286;7.812;2023-07-09T01:09:43;21.00;67.70
72206;DHT22;60111;48.286;7.812;2023-07-09T01:12:18;21.00;67.80
72206;DHT22;60111;48.286;7.812;2023-07-09T01:14:53;20.90;67.60
72206;DHT22;60111;48.286;7.812;2023-07-09T01:17:28;20.90;67.80
72206;DHT22;60111;48.286;7.812;2023-07-09T01:20:01;20.90;67.70
72206;DHT22;60111;48.286;7.812;2023-07-09T01:22:34;20.90;67.40
72206;DHT22;60111;48.286;7.812;2023-07-09T01:25:09;20.80;68.20
72206;DHT22;60111;48.286;7.812;2023-07-09T01:28:02;20.80;68.50
72206;DHT22;60111;48.286;7.812;2023-07-09T01:30:37;20.80;68.70
72206;DHT22;60111;48.286;7.812;2023-07-09T01:33:10;20.70;68.60
72206;DHT22;60111;48.286;7.812;2023-07-09T01:35:43;20.70;68.10
72206;DHT22;60111;48.286;7.812;2023-07-09T01:38:15;20.80;67.50
72206;DHT22;60111;48.286;7.812;2023-07-09T01:40:48;20.80;67.40
72206;DHT22;60111;48.286;7.812;2023-07-09T01:43:21;20.80;67.90
72206;DHT22;60111;48.286;7.812;2023-07-09T01:45:53;20.80;68.00
72206;DHT22;60111;48.286;7.812;2023-07-09T01:48:28;20.70;68.90
72206;DHT22;60111;48.286;7.812;2023-07-09T01:51:00;20.70;68.60
72206;DHT22;60111;48.286;7.812;2023-07-09T01:53:34;20.60;68.80
72206;DHT22;60111;48.286;7.812;2023-07-09T01:56:07;20.60;69.10
72206;DHT22;60111;48.286;7.812;2023-07-09T01:58:40;20.60;68.90
72206;DHT22;60111;48.286;7.812;2023-07-09T02:01:12;20.50;68.70
72206;DHT22;60111;48.286;7.812;2023-07-09T02:03:46;20.50;69.00
72206;DHT22;60111;48.286;7.812;2023-07-09T02:06:19;20.40;69.20
72206;DHT22;60111;48.286;7.812;2023-07-09T02:08:54;20.40;69.00
72206;DHT22;60111;48.286;7.812;2023-07-09T02:11:26;20.40;69.00
72206;DHT22;60111;48.286;7.812;2023-07-09T02:13:59;20.30;69.70
72206;DHT22;60111;48.286;7.812;2023-07-09T02:16:31;20.20;70.30
72206;DHT22;60111;48.286;7.812;2023-07-09T02:19:04;20.20;70.20
72206;DHT22;60111;48.286;7.812;2023-07-09T02:21:36;20.20;70.10
72206;DHT22;60111;48.286;7.812;2023-07-09T02:24:09;20.20;69.40
72206;DHT22;60111;48.286;7.812;2023-07-09T02:26:41;20.20;69.70
72206;DHT22;60111;48.286;7.812;2023-07-09T02:29:14;20.10;70.10
72206;DHT22;60111;48.286;7.812;2023-07-09T02:31:49;20.10;70.80
72206;DHT22;60111;48.286;7.812;2023-07-09T02:34:22;20.00;71.00
72206;DHT22;60111;48.286;7.812;2023-07-09T02:36:58;20.00;70.70
72206;DHT22;60111;48.286;7.812;2023-07-09T02:39:31;19.90;70.70
72206;DHT22;60111;48.286;7.812;2023-07-09T02:42:04;19.90;70.70
72206;DHT22;60111;48.286;7.812;2023-07-09T02:44:37;19.90;70.70
72206;DHT22;60111;48.286;7.812;2023-07-09T02:47:10;19.90;71.00
72206;DHT22;60111;48.286;7.812;2023-07-09T02:49:43;19.90;70.80
72206;DHT22;60111;48.286;7.812;2023-07-09T02:52:16;20.00;70.30
72206;DHT22;60111;48.286;7.812;2023-07-09T02:54:48;19.80;70.80
72206;DHT22;60111;48.286;7.812;2023-07-09T02:57:21;19.80;71.60
72206;DHT22;60111;48.286;7.812;2023-07-09T02:59:53;19.70;71.80
72206;DHT22;60111;48.286;7.812;2023-07-09T03:02:26;19.60;71.90
72206;DHT22;60111;48.286;7.812;2023-07-09T03:04:58;19.60;72.50
72206;DHT22;60111;48.286;7.812;2023-07-09T03:07:31;19.50;72.90
72206;DHT22;60111;48.286;7.812;2023-07-09T03:10:05;19.50;72.70
72206;DHT22;60111;48.286;7.812;2023-07-09T03:12:37;19.50;72.20
72206;DHT22;60111;48.286;7.812;2023-07-09T03:15:11;19.40;72.50
72206;DHT22;60111;48.286;7.812;2023-07-09T03:17:44;19.30;73.50
72206;DHT22;60111;48.286;7.812;2023-07-09T03:20:16;19.20;73.70
72206;DHT22;60111;48.286;7.812;2023-07-09T03:22:49;19.20;73.80
72206;DHT22;60111;48.286;7.812;2023-07-09T03:25:21;19.20;74.30
72206;DHT22;60111;48.286;7.812;2023-07-09T03:27:54;19.10;74.10
72206;DHT22;60111;48.286;7.812;2023-07-09T03:30:27;19.10;74.50
72206;DHT22;60111;48.286;7.812;2023-07-09T03:32:59;19.10;74.80
72206;DHT22;60111;48.286;7.812;2023-07-09T03:35:32;19.10;74.70
72206;DHT22;60111;48.286;7.812;2023-07-09T03:38:10;19.00;74.80
72206;DHT22;60111;48.286;7.812;2023-07-09T03:40:43;19.00;74.90
72206;DHT22;60111;48.286;7.812;2023-07-09T03:43:16;19.00;74.90
72206;DHT22;60111;48.286;7.812;2023-07-09T03:45:49;19.00;74.70
72206;DHT22;60111;48.286;7.812;2023-07-09T03:48:22;19.00;74.80
72206;DHT22;60111;48.286;7.812;2023-07-09T03:50:55;19.00;75.00
72206;DHT22;60111;48.286;7.812;2023-07-09T03:53:27;18.90;75.40
72206;DHT22;60111;48.286;7.812;2023-07-09T03:56:00;18.90;75.50
72206;DHT22;60111;48.286;7.812;2023-07-09T03:58:33;18.90;75.50
72206;DHT22;60111;48.286;7.812;2023-07-09T04:01:05;18.90;75.70
72206;DHT22;60111;48.286;7.812;2023-07-09T04:03:38;18.90;75.60
72206;DHT22;60111;48.286;7.812;2023-07-09T04:06:10;18.90;75.70
72206;DHT22;60111;48.286;7.812;2023-07-09T04:08:43;18.90;75.80
72206;DHT22;60111;48.286;7.812;2023-07-09T04:11:16;18.90;74.90
72206;DHT22;60111;48.286;7.812;2023-07-09T04:13:48;18.90;74.80
72206;DHT22;60111;48.286;7.812;2023-07-09T04:16:21;18.90;75.40
72206;DHT22;60111;48.286;7.812;2023-07-09T04:18:54;18.90;75.50
72206;DHT22;60111;48.286;7.812;2023-07-09T04:21:27;18.90;75.40
72206;DHT22;60111;48.286;7.812;2023-07-09T04:23:59;18.80;75.20
72206;DHT22;60111;48.286;7.812;2023-07-09T04:26:32;18.90;75.70
72206;DHT22;60111;48.286;7.812;2023-07-09T04:29:05;18.80;75.40
72206;DHT22;60111;48.286;7.812;2023-07-09T04:31:38;18.80;75.40
72206;DHT22;60111;48.286;7.812;2023-07-09T04:34:11;18.80;75.50
72206;DHT22;60111;48.286;7.812;2023-07-09T04:36:46;18.80;75.70
72206;DHT22;60111;48.286;7.812;2023-07-09T04:39:20;18.80;75.60
72206;DHT22;60111;48.286;7.812;2023-07-09T04:41:53;18.80;75.80
72206;DHT22;60111;48.286;7.812;2023-07-09T04:44:26;18.80;76.20
72206;DHT22;60111;48.286;7.812;2023-07-09T04:46:58;18.80;76.10
72206;DHT22;60111;48.286;7.812;2023-07-09T04:49:31;18.80;76.20
72206;DHT22;60111;48.286;7.812;2023-07-09T04:52:04;18.80;76.10
72206;DHT22;60111;48.286;7.812;2023-07-09T04:54:40;18.80;76.70
72206;DHT22;60111;48.286;7.812;2023-07-09T04:57:14;18.90;76.50
72206;DHT22;60111;48.286;7.812;2023-07-09T04:59:47;19.00;76.40
72206;DHT22;60111;48.286;7.812;2023-07-09T05:02:20;19.10;76.40
72206;DHT22;60111;48.286;7.812;2023-07-09T05:04:53;19.10;76.60
72206;DHT22;60111;48.286;7.812;2023-07-09T05:07:26;19.20;75.40
72206;DHT22;60111;48.286;7.812;2023-07-09T05:09:58;19.30;74.90
72206;DHT22;60111;48.286;7.812;2023-07-09T05:12:31;19.30;74.40
72206;DHT22;60111;48.286;7.812;2023-07-09T05:15:05;19.30;74.40
72206;DHT22;60111;48.286;7.812;2023-07-09T05:17:37;19.30;74.50
72206;DHT22;60111;48.286;7.812;2023-07-09T05:20:10;19.40;74.70
72206;DHT22;60111;48.286;7.812;2023-07-09T05:22:43;19.50;74.60
72206;DHT22;60111;48.286;7.812;2023-07-09T05:25:15;19.60;74.50
72206;DHT22;60111;48.286;7.812;2023-07-09T05:27:48;19.70;74.30
72206;DHT22;60111;48.286;7.812;2023-07-09T05:30:21;19.80;73.30
72206;DHT22;60111;48.286;7.812;2023-07-09T05:32:53;19.90;73.10
72206;DHT22;60111;48.286;7.812;2023-07-09T05:35:28;20.00;72.70
72206;DHT22;60111;48.286;7.812;2023-07-09T05:38:00;20.20;72.20
72206;DHT22;60111;48.286;7.812;2023-07-09T05:40:33;20.30;72.00
72206;DHT22;60111;48.286;7.812;2023-07-09T05:43:06;20.50;70.80
72206;DHT22;60111;48.286;7.812;2023-07-09T05:45:41;20.60;70.80
72206;DHT22;60111;48.286;7.812;2023-07-09T05:48:14;20.70;71.10
72206;DHT22;60111;48.286;7.812;2023-07-09T05:50:48;20.80;70.80
72206;DHT22;60111;48.286;7.812;2023-07-09T05:53:21;21.00;70.50
72206;DHT22;60111;48.286;7.812;2023-07-09T05:55:56;21.10;70.10
72206;DHT22;60111;48.286;7.812;2023-07-09T05:58:28;21.30;70.10
72206;DHT22;60111;48.286;7.812;2023-07-09T06:01:01;21.50;69.40
72206;DHT22;60111;48.286;7.812;2023-07-09T06:03:33;21.60;69.30
72206;DHT22;60111;48.286;7.812;2023-07-09T06:06:06;21.80;69.00
72206;DHT22;60111;48.286;7.812;2023-07-09T06:08:39;22.00;69.10
72206;DHT22;60111;48.286;7.812;2023-07-09T06:11:11;22.10;68.90
72206;DHT22;60111;48.286;7.812;2023-07-09T06:13:45;22.30;68.90
72206;DHT22;60111;48.286;7.812;2023-07-09T06:16:20;22.50;67.50
72206;DHT22;60111;48.286;7.812;2023-07-09T06:18:53;22.60;65.80
72206;DHT22;60111;48.286;7.812;2023-07-09T06:21:25;22.80;65.70
72206;DHT22;60111;48.286;7.812;2023-07-09T06:23:58;22.90;65.10
72206;DHT22;60111;48.286;7.812;2023-07-09T06:26:30;23.00;64.10
72206;DHT22;60111;48.286;7.812;2023-07-09T06:29:03;23.20;62.90
72206;DHT22;60111;48.286;7.812;2023-07-09T06:31:36;23.30;64.20
72206;DHT22;60111;48.286;7.812;2023-07-09T06:34:09;23.40;61.80
72206;DHT22;60111;48.286;7.812;2023-07-09T06:36:42;23.60;61.40
72206;DHT22;60111;48.286;7.812;2023-07-09T06:39:14;23.60;63.40
72206;DHT22;60111;48.286;7.812;2023-07-09T06:41:49;23.70;61.90
72206;DHT22;60111;48.286;7.812;2023-07-09T06:44:21;23.80;61.10
72206;DHT22;60111;48.286;7.812;2023-07-09T06:46:56;24.00;62.70
72206;DHT22;60111;48.286;7.812;2023-07-09T06:49:28;24.10;63.20
72206;DHT22;60111;48.286;7.812;2023-07-09T06:52:01;24.20;62.30
72206;DHT22;60111;48.286;7.812;2023-07-09T06:54:33;24.30;62.00
72206;DHT22;60111;48.286;7.812;2023-07-09T06:57:06;24.40;62.80
72206;DHT22;60111;48.286;7.812;2023-07-09T06:59:39;24.60;60.10
72206;DHT22;60111;48.286;7.812;2023-07-09T07:02:11;24.70;61.80
72206;DHT22;60111;48.286;7.812;2023-07-09T07:04:44;24.90;60.00
72206;DHT22;60111;48.286;7.812;2023-07-09T07:07:16;25.10;60.70
72206;DHT22;60111;48.286;7.812;2023-07-09T07:09:49;25.20;59.80
72206;DHT22;60111;48.286;7.812;2023-07-09T07:12:27;25.20;58.90
72206;DHT22;60111;48.286;7.812;2023-07-09T07:15:00;25.40;60.00
72206;DHT22;60111;48.286;7.812;2023-07-09T07:17:32;25.60;61.10
72206;DHT22;60111;48.286;7.812;2023-07-09T07:20:06;25.60;58.20
72206;DHT22;60111;48.286;7.812;2023-07-09T07:22:39;25.70;59.20
72206;DHT22;60111;48.286;7.812;2023-07-09T07:25:12;25.70;57.80
72206;DHT22;60111;48.286;7.812;2023-07-09T07:27:44;25.80;56.80
72206;DHT22;60111;48.286;7.812;2023-07-09T07:30:17;25.90;56.40
72206;DHT22;60111;48.286;7.812;2023-07-09T07:32:49;26.00;57.70
72206;DHT22;60111;48.286;7.812;2023-07-09T07:35:22;26.10;56.30
72206;DHT22;60111;48.286;7.812;2023-07-09T07:37:55;26.30;56.20
72206;DHT22;60111;48.286;7.812;2023-07-09T07:40:28;26.40;55.50
72206;DHT22;60111;48.286;7.812;2023-07-09T07:43:01;26.60;57.20
72206;DHT22;60111;48.286;7.812;2023-07-09T07:45:33;26.80;57.20
72206;DHT22;60111;48.286;7.812;2023-07-09T07:48:06;27.00;58.10
72206;DHT22;60111;48.286;7.812;2023-07-09T07:50:38;27.20;55.40
72206;DHT22;60111;48.286;7.812;2023-07-09T07:53:12;27.40;54.90
72206;DHT22;60111;48.286;7.812;2023-07-09T07:55:45;27.60;57.00
72206;DHT22;60111;48.286;7.812;2023-07-09T07:58:18;27.70;53.90
72206;DHT22;60111;48.286;7.812;2023-07-09T08:00:55;27.80;53.90
72206;DHT22;60111;48.286;7.812;2023-07-09T08:03:28;27.80;54.70
72206;DHT22;60111;48.286;7.812;2023-07-09T08:06:01;27.90;52.20
72206;DHT22;60111;48.286;7.812;2023-07-09T08:08:33;27.90;52.50
72206;DHT22;60111;48.286;7.812;2023-07-09T08:11:07;27.90;52.70
72206;DHT22;60111;48.286;7.812;2023-07-09T08:13:39;28.00;52.60
72206;DHT22;60111;48.286;7.812;2023-07-09T08:16:12;28.10;52.90
72206;DHT22;60111;48.286;7.812;2023-07-09T08:18:45;28.20;50.30
72206;DHT22;60111;48.286;7.812;2023-07-09T08:21:18;28.20;50.80
72206;DHT22;60111;48.286;7.812;2023-07-09T08:23:50;28.30;53.20
72206;DHT22;60111;48.286;7.812;2023-07-09T08:26:23;28.40;49.90
72206;DHT22;60111;48.286;7.812;2023-07-09T08:28:58;28.50;50.20
72206;DHT22;60111;48.286;7.812;2023-07-09T08:31:31;28.60;50.90
72206;DHT22;60111;48.286;7.812;2023-07-09T08:34:05;28.70;49.70
72206;DHT22;60111;48.286;7.812;2023-07-09T08:36:38;28.80;49.40
72206;DHT22;60111;48.286;7.812;2023-07-09T08:39:11;28.90;49.30
72206;DHT22;60111;48.286;7.812;2023-07-09T08:41:48;29.00;52.00
72206;DHT22;60111;48.286;7.812;2023-07-09T08:44:37;29.20;50.60
72206;DHT22;60111;48.286;7.812;2023-07-09T08:47:14;29.30;48.00
72206;DHT22;60111;48.286;7.812;2023-07-09T08:49:49;29.30;49.50
72206;DHT22;60111;48.286;7.812;2023-07-09T08:52:33;29.50;51.50
72206;DHT22;60111;48.286;7.812;2023-07-09T08:55:18;29.70;50.70
72206;DHT22;60111;48.286;7.812;2023-07-09T08:58:02;30.10;49.40
72206;DHT22;60111;48.286;7.812;2023-07-09T09:00:43;30.30;49.60
72206;DHT22;60111;48.286;7.812;2023-07-09T09:03:37;30.50;48.20
72206;DHT22;60111;48.286;7.812;2023-07-09T09:06:15;30.70;49.20
72206;DHT22;60111;48.286;7.812;2023-07-09T09:08:58;30.90;47.90
72206;DHT22;60111;48.286;7.812;2023-07-09T09:11:44;31.10;48.30
72206;DHT22;60111;48.286;7.812;2023-07-09T09:14:26;31.20;47.10
72206;DHT22;60111;48.286;7.812;2023-07-09T09:16:59;31.30;46.40
72206;DHT22;60111;48.286;7.812;2023-07-09T09:19:37;31.50;46.70
72206;DHT22;60111;48.286;7.812;2023-07-09T09:22:11;31.60;47.70
72206;DHT22;60111;48.286;7.812;2023-07-09T09:25:11;31.70;46.20
72206;DHT22;60111;48.286;7.812;2023-07-09T09:27:34;31.80;45.90
72206;DHT22;60111;48.286;7.812;2023-07-09T09:30:14;32.00;45.90
72206;DHT22;60111;48.286;7.812;2023-07-09T09:32:48;32.10;45.30
72206;DHT22;60111;48.286;7.812;2023-07-09T09:35:35;32.30;42.70
72206;DHT22;60111;48.286;7.812;2023-07-09T09:38:15;32.40;43.20
72206;DHT22;60111;48.286;7.812;2023-07-09T09:40:47;32.40;44.70
72206;DHT22;60111;48.286;7.812;2023-07-09T09:43:20;32.40;44.70
72206;DHT22;60111;48.286;7.812;2023-07-09T09:45:54;32.50;42.60
72206;DHT22;60111;48.286;7.812;2023-07-09T09:48:31;32.60;42.60
72206;DHT22;60111;48.286;7.812;2023-07-09T09:51:05;32.60;42.50
72206;DHT22;60111;48.286;7.812;2023-07-09T09:53:44;32.50;42.30
72206;DHT22;60111;48.286;7.812;2023-07-09T09:56:28;32.50;41.40
72206;DHT22;60111;48.286;7.812;2023-07-09T09:59:02;32.60;41.80
72206;DHT22;60111;48.286;7.812;2023-07-09T10:01:36;32.70;43.10
72206;DHT22;60111;48.286;7.812;2023-07-09T10:04:15;32.70;40.30
72206;DHT22;60111;48.286;7.812;2023-07-09T10:06:57;32.50;40.90
72206;DHT22;60111;48.286;7.812;2023-07-09T10:09:50;32.40;41.10
72206;DHT22;60111;48.286;7.812;2023-07-09T10:12:53;32.30;38.60
72206;DHT22;60111;48.286;7.812;2023-07-09T10:15:33;32.50;38.60
72206;DHT22;60111;48.286;7.812;2023-07-09T10:20:51;32.90;39.10
72206;DHT22;60111;48.286;7.812;2023-07-09T10:23:39;33.10;40.10
72206;DHT22;60111;48.286;7.812;2023-07-09T10:26:16;33.30;41.70
72206;DHT22;60111;48.286;7.812;2023-07-09T10:29:03;33.50;37.50
72206;DHT22;60111;48.286;7.812;2023-07-09T10:31:43;33.70;40.10
72206;DHT22;60111;48.286;7.812;2023-07-09T10:37:32;33.70;37.80
72206;DHT22;60111;48.286;7.812;2023-07-09T10:40:01;33.50;37.10
72206;DHT22;60111;48.286;7.812;2023-07-09T10:45:28;34.00;35.50
72206;DHT22;60111;48.286;7.812;2023-07-09T10:48:02;34.00;36.90
72206;DHT22;60111;48.286;7.812;2023-07-09T10:50:34;33.90;36.10
72206;DHT22;60111;48.286;7.812;2023-07-09T10:53:16;33.90;39.20
72206;DHT22;60111;48.286;7.812;2023-07-09T10:55:50;34.10;38.10
72206;DHT22;60111;48.286;7.812;2023-07-09T11:01:28;34.00;37.20
72206;DHT22;60111;48.286;7.812;2023-07-09T11:04:03;34.00;38.10
72206;DHT22;60111;48.286;7.812;2023-07-09T11:06:41;34.00;37.90
72206;DHT22;60111;48.286;7.812;2023-07-09T11:09:35;34.10;38.20
72206;DHT22;60111;48.286;7.812;2023-07-09T11:12:16;34.30;38.80
72206;DHT22;60111;48.286;7.812;2023-07-09T11:14:57;34.50;37.10
72206;DHT22;60111;48.286;7.812;2023-07-09T11:17:31;34.60;36.10
72206;DHT22;60111;48.286;7.812;2023-07-09T11:20:28;34.50;36.10
72206;DHT22;60111;48.286;7.812;2023-07-09T11:23:16;34.60;39.00
72206;DHT22;60111;48.286;7.812;2023-07-09T11:25:46;34.80;39.00
72206;DHT22;60111;48.286;7.812;2023-07-09T11:28:20;35.00;38.40
72206;DHT22;60111;48.286;7.812;2023-07-09T11:30:55;35.20;36.50
72206;DHT22;60111;48.286;7.812;2023-07-09T11:33:29;35.30;34.30
72206;DHT22;60111;48.286;7.812;2023-07-09T11:36:10;35.30;36.10
72206;DHT22;60111;48.286;7.812;2023-07-09T11:38:46;35.30;37.70
72206;DHT22;60111;48.286;7.812;2023-07-09T11:44:20;35.40;35.90
72206;DHT22;60111;48.286;7.812;2023-07-09T11:53:05;35.50;37.90
72206;DHT22;60111;48.286;7.812;2023-07-09T11:55:00;35.40;36.90
72206;DHT22;60111;48.286;7.812;2023-07-09T11:57:32;35.50;36.50
72206;DHT22;60111;48.286;7.812;2023-07-09T12:00:07;35.50;37.80
72206;DHT22;60111;48.286;7.812;2023-07-09T12:02:40;35.50;36.80
72206;DHT22;60111;48.286;7.812;2023-07-09T12:05:15;35.40;36.30
72206;DHT22;60111;48.286;7.812;2023-07-09T12:07:49;35.50;37.40
72206;DHT22;60111;48.286;7.812;2023-07-09T12:10:32;35.70;37.00
72206;DHT22;60111;48.286;7.812;2023-07-09T12:13:02;35.90;38.60
72206;DHT22;60111;48.286;7.812;2023-07-09T12:15:35;36.00;38.80
72206;DHT22;60111;48.286;7.812;2023-07-09T12:18:14;36.00;36.80
72206;DHT22;60111;48.286;7.812;2023-07-09T12:20:52;36.00;36.10
72206;DHT22;60111;48.286;7.812;2023-07-09T12:23:29;36.00;34.80
72206;DHT22;60111;48.286;7.812;2023-07-09T12:26:04;35.70;37.80
72206;DHT22;60111;48.286;7.812;2023-07-09T12:28:37;35.80;34.70
72206;DHT22;60111;48.286;7.812;2023-07-09T12:31:17;35.80;37.20
72206;DHT22;60111;48.286;7.812;2023-07-09T12:33:52;35.90;37.80
72206;DHT22;60111;48.286;7.812;2023-07-09T12:36:25;36.00;37.10
72206;DHT22;60111;48.286;7.812;2023-07-09T12:39:02;36.00;36.30
72206;DHT22;60111;48.286;7.812;2023-07-09T12:41:38;36.00;34.60
72206;DHT22;60111;48.286;7.812;2023-07-09T12:44:20;36.10;35.30
72206;DHT22;60111;48.286;7.812;2023-07-09T12:46:54;36.10;34.50
72206;DHT22;60111;48.286;7.812;2023-07-09T12:49:27;36.00;34.80
72206;DHT22;60111;48.286;7.812;2023-07-09T12:52:08;36.20;35.90
72206;DHT22;60111;48.286;7.812;2023-07-09T12:54:38;36.40;35.40
72206;DHT22;60111;48.286;7.812;2023-07-09T12:57:15;36.70;35.30
72206;DHT22;60111;48.286;7.812;2023-07-09T12:59:51;36.90;35.80
72206;DHT22;60111;48.286;7.812;2023-07-09T13:02:42;37.10;36.30
72206;DHT22;60111;48.286;7.812;2023-07-09T13:05:21;37.30;34.20
72206;DHT22;60111;48.286;7.812;2023-07-09T13:07:58;37.30;32.20
72206;DHT22;60111;48.286;7.812;2023-07-09T13:10:38;37.10;32.20
72206;DHT22;60111;48.286;7.812;2023-07-09T13:13:12;36.80;33.50
72206;DHT22;60111;48.286;7.812;2023-07-09T13:15:56;36.90;36.60
72206;DHT22;60111;48.286;7.812;2023-07-09T13:18:30;37.00;36.70
72206;DHT22;60111;48.286;7.812;2023-07-09T13:21:05;37.20;32.80
72206;DHT22;60111;48.286;7.812;2023-07-09T13:23:37;37.10;33.90
72206;DHT22;60111;48.286;7.812;2023-07-09T13:26:11;36.80;33.60
72206;DHT22;60111;48.286;7.812;2023-07-09T13:28:46;36.80;32.80
72206;DHT22;60111;48.286;7.812;2023-07-09T13:31:38;36.70;33.30
72206;DHT22;60111;48.286;7.812;2023-07-09T13:34:18;36.40;35.10
72206;DHT22;60111;48.286;7.812;2023-07-09T13:36:51;36.50;35.50
72206;DHT22;60111;48.286;7.812;2023-07-09T13:39:27;36.60;34.50
72206;DHT22;60111;48.286;7.812;2023-07-09T13:42:18;36.60;35.50
72206;DHT22;60111;48.286;7.812;2023-07-09T13:44:51;36.60;34.40
72206;DHT22;60111;48.286;7.812;2023-07-09T13:47:26;36.40;34.80
72206;DHT22;60111;48.286;7.812;2023-07-09T13:49:59;36.20;35.40
72206;DHT22;60111;48.286;7.812;2023-07-09T13:52:34;36.10;36.30
72206;DHT22;60111;48.286;7.812;2023-07-09T13:55:21;36.10;37.90
72206;DHT22;60111;48.286;7.812;2023-07-09T13:57:49;36.00;37.20
72206;DHT22;60111;48.286;7.812;2023-07-09T14:00:22;36.20;36.00
72206;DHT22;60111;48.286;7.812;2023-07-09T14:02:56;36.10;35.80
72206;DHT22;60111;48.286;7.812;2023-07-09T14:05:29;36.10;33.80
72206;DHT22;60111;48.286;7.812;2023-07-09T14:08:02;36.20;35.20
72206;DHT22;60111;48.286;7.812;2023-07-09T14:10:34;36.30;33.80
72206;DHT22;60111;48.286;7.812;2023-07-09T14:13:12;36.40;35.10
72206;DHT22;60111;48.286;7.812;2023-07-09T14:15:43;36.40;33.70
72206;DHT22;60111;48.286;7.812;2023-07-09T14:18:18;36.30;34.40
72206;DHT22;60111;48.286;7.812;2023-07-09T14:20:51;36.20;33.80
72206;DHT22;60111;48.286;7.812;2023-07-09T14:23:25;36.20;34.50
72206;DHT22;60111;48.286;7.812;2023-07-09T14:25:58;36.40;34.70
72206;DHT22;60111;48.286;7.812;2023-07-09T14:28:30;36.60;35.00
72206;DHT22;60111;48.286;7.812;2023-07-09T14:31:03;36.70;34.50
72206;DHT22;60111;48.286;7.812;2023-07-09T14:33:35;36.60;34.10
72206;DHT22;60111;48.286;7.812;2023-07-09T14:36:09;36.50;33.40
72206;DHT22;60111;48.286;7.812;2023-07-09T14:38:41;36.40;33.50
72206;DHT22;60111;48.286;7.812;2023-07-09T14:41:22;36.20;34.70
72206;DHT22;60111;48.286;7.812;2023-07-09T14:43:57;36.20;35.70
72206;DHT22;60111;48.286;7.812;2023-07-09T14:46:30;36.10;36.30
72206;DHT22;60111;48.286;7.812;2023-07-09T14:49:03;36.00;35.10
72206;DHT22;60111;48.286;7.812;2023-07-09T14:51:35;35.90;37.10
72206;DHT22;60111;48.286;7.812;2023-07-09T14:54:26;35.70;38.10
72206;DHT22;60111;48.286;7.812;2023-07-09T14:57:00;35.50;37.70
72206;DHT22;60111;48.286;7.812;2023-07-09T14:59:33;35.40;37.80
72206;DHT22;60111;48.286;7.812;2023-07-09T15:04:58;35.00;38.70
72206;DHT22;60111;48.286;7.812;2023-07-09T15:07:31;34.80;39.70
72206;DHT22;60111;48.286;7.812;2023-07-09T15:10:03;34.70;40.60
72206;DHT22;60111;48.286;7.812;2023-07-09T15:12:42;34.50;39.90
72206;DHT22;60111;48.286;7.812;2023-07-09T15:15:26;34.40;41.00
72206;DHT22;60111;48.286;7.812;2023-07-09T15:18:01;34.40;41.30
72206;DHT22;60111;48.286;7.812;2023-07-09T15:20:35;34.60;42.20
72206;DHT22;60111;48.286;7.812;2023-07-09T15:23:08;34.90;40.70
72206;DHT22;60111;48.286;7.812;2023-07-09T15:25:42;35.30;40.50
72206;DHT22;60111;48.286;7.812;2023-07-09T15:28:15;35.50;38.90
72206;DHT22;60111;48.286;7.812;2023-07-09T15:30:48;35.50;39.00
72206;DHT22;60111;48.286;7.812;2023-07-09T15:33:21;35.50;39.20
72206;DHT22;60111;48.286;7.812;2023-07-09T15:35:53;35.50;38.60
72206;DHT22;60111;48.286;7.812;2023-07-09T15:38:32;35.60;39.80
72206;DHT22;60111;48.286;7.812;2023-07-09T15:41:14;35.90;37.70
72206;DHT22;60111;48.286;7.812;2023-07-09T15:43:46;36.00;38.10
72206;DHT22;60111;48.286;7.812;2023-07-09T15:46:21;36.00;37.40
72206;DHT22;60111;48.286;7.812;2023-07-09T15:48:55;36.20;36.30
72206;DHT22;60111;48.286;7.812;2023-07-09T15:51:28;36.20;37.00
72206;DHT22;60111;48.286;7.812;2023-07-09T15:54:00;36.20;38.00
72206;DHT22;60111;48.286;7.812;2023-07-09T15:56:35;36.20;38.60
72206;DHT22;60111;48.286;7.812;2023-07-09T15:59:21;36.20;37.40
72206;DHT22;60111;48.286;7.812;2023-07-09T16:01:51;36.30;37.90
72206;DHT22;60111;48.286;7.812;2023-07-09T16:04:24;36.30;38.10
72206;DHT22;60111;48.286;7.812;2023-07-09T16:06:57;36.30;36.90
72206;DHT22;60111;48.286;7.812;2023-07-09T16:09:31;36.20;38.70
72206;DHT22;60111;48.286;7.812;2023-07-09T16:12:07;35.90;38.50
72206;DHT22;60111;48.286;7.812;2023-07-09T16:14:39;35.60;38.60
72206;DHT22;60111;48.286;7.812;2023-07-09T16:17:13;35.40;37.90
72206;DHT22;60111;48.286;7.812;2023-07-09T16:19:47;35.20;36.90
72206;DHT22;60111;48.286;7.812;2023-07-09T16:22:20;34.90;37.30
72206;DHT22;60111;48.286;7.812;2023-07-09T16:24:54;34.70;37.20
72206;DHT22;60111;48.286;7.812;2023-07-09T16:27:27;34.70;38.50
72206;DHT22;60111;48.286;7.812;2023-07-09T16:29:59;34.80;38.30
72206;DHT22;60111;48.286;7.812;2023-07-09T16:32:32;35.00;36.60
72206;DHT22;60111;48.286;7.812;2023-07-09T16:35:05;34.90;35.50
72206;DHT22;60111;48.286;7.812;2023-07-09T16:37:37;34.80;36.40
72206;DHT22;60111;48.286;7.812;2023-07-09T16:40:16;34.80;37.40
72206;DHT22;60111;48.286;7.812;2023-07-09T16:42:50;34.90;37.20